sensor_id;sensor_type;location;lat;lon;timestamp;temperature;humidity
15630;DHT22;7914;50.842;0.166;2023-12-14T00:00:29;5.80;100.00
15630;DHT22;7914;50.842;0.166;2023-12-14T00:02:56;5.70;100.00
15630;DHT22;7914;50.842;0.166;2023-12-14T00:05:22;5.70;100.00
15630;DHT22;7914;50.842;0.166;2023-12-14T00:07:47;5.60;100.00
15630;DHT22;7914;50.842;0.166;2023-12-14T00:10:13;5.50;100.00
15630;DHT22;7914;50.842;0.166;2023-12-14T00:12:39;5.50;100.00
15630;DHT22;7914;50.842;0.166;2023-12-14T00:15:06;5.50;100.00
15630;DHT22;7914;50.842;0.166;2023-12-14T00:17:32;5.40;100.00
15630;DHT22;7914;50.842;0.166;2023-12-14T00:19:58;5.40;100.00
15630;DHT22;7914;50.842;0.166;2023-12-14T00:22:24;5.40;100.00
15630;DHT22;7914;50.842;0.166;2023-12-14T00:24:50;5.40;100.00
15630;DHT22;7914;50.842;0.166;2023-12-14T00:27:16;5.30;100.00
15630;DHT22;7914;50.842;0.166;2023-12-14T00:29:42;5.30;100.00
15630;DHT22;7914;50.842;0.166;2023-12-14T00:32:08;5.30;100.00
15630;DHT22;7914;50.842;0.166;2023-12-14T00:34:34;5.20;100.00
15630;DHT22;7914;50.842;0.166;2023-12-14T00:37:00;5.10;100.00
15630;DHT22;7914;50.842;0.166;2023-12-14T00:39:26;5.10;100.00
15630;DHT22;7914;50.842;0.166;2023-12-14T00:41:52;5.10;100.00
15630;DHT22;7914;50.842;0.166;2023-12-14T00:44:17;5.10;100.00
15630;DHT22;7914;50.842;0.166;2023-12-14T00:46:43;5.00;100.00
15630;DHT22;7914;50.842;0.166;2023-12-14T00:49:09;5.00;100.00
15630;DHT22;7914;50.842;0.166;2023-12-14T00:51:35;5.00;100.00
15630;DHT22;7914;50.842;0.166;2023-12-14T00:54:03;4.90;100.00
15630;DHT22;7914;50.842;0.166;2023-12-14T00:56:29;4.90;100.00
15630;DHT22;7914;50.842;0.166;2023-12-14T00:58:54;4.90;100.00
15630;DHT22;7914;50.842;0.166;2023-12-14T01:01:20;4.90;100.00
15630;DHT22;7914;50.842;0.166;2023-12-14T01:03:46;4.90;100.00
15630;DHT22;7914;50.842;0.166;2023-12-14T01:06:12;4.90;100.00
15630;DHT22;7914;50.842;0.166;2023-12-14T01:08:37;4.80;100.00
15630;DHT22;7914;50.842;0.166;2023-12-14T01:11:03;4.80;100.00
15630;DHT22;7914;50.842;0.166;2023-12-14T01:13:29;4.70;100.00
15630;DHT22;7914;50.842;0.166;2023-12-14T01:15:54;4.70;100.00
15630;DHT22;7914;50.842;0.166;2023-12-14T01:18:20;4.70;100.00
15630;DHT22;7914;50.842;0.166;2023-12-14T01:20:46;4.60;100.00
15630;DHT22;7914;50.842;0.166;2023-12-14T01:23:12;4.60;100.00
15630;DHT22;7914;50.842;0.166;2023-12-14T01:25:38;4.60;100.00
15630;DHT22;7914;50.842;0.166;2023-12-14T01:28:03;4.60;100.00
15630;DHT22;7914;50.842;0.166;2023-12-14T01:30:29;4.60;100.00
15630;DHT22;7914;50.842;0.166;2023-12-14T01:32:55;4.60;100.00
15630;DHT22;7914;50.842;0.166;2023-12-14T01:35:20;4.50;100.00
15630;DHT22;7914;50.842;0.166;2023-12-14T01:37:46;4.40;100.00
15630;DHT22;7914;50.842;0.166;2023-12-14T01:40:12;4.40;100.00
15630;DHT22;7914;50.842;0.166;2023-12-14T01:42:38;4.40;100.00
15630;DHT22;7914;50.842;0.166;2023-12-14T01:45:05;4.40;100.00
15630;DHT22;7914;50.842;0.166;2023-12-14T01:47:31;4.30;100.00
15630;DHT22;7914;50.842;0.166;2023-12-14T01:49:56;4.40;100.00
15630;DHT22;7914;50.842;0.166;2023-12-14T01:52:22;4.30;100.00
15630;DHT22;7914;50.842;0.166;2023-12-14T01:54:48;4.40;100.00
15630;DHT22;7914;50.842;0.166;2023-12-14T01:57:13;4.40;100.00
15630;DHT22;7914;50.842;0.166;2023-12-14T01:59:39;4.30;100.00
15630;DHT22;7914;50.842;0.166;2023-12-14T02:02:05;4.20;100.00
15630;DHT22;7914;50.842;0.166;2023-12-14T02:04:31;4.20;100.00
15630;DHT22;7914;50.842;0.166;2023-12-14T02:06:57;4.20;100.00
15630;DHT22;7914;50.842;0.166;2023-12-14T02:09:22;4.10;100.00
15630;DHT22;7914;50.842;0.166;2023-12-14T02:11:48;4.00;100.00
15630;DHT22;7914;50.842;0.166;2023-12-14T02:14:14;4.00;100.00
15630;DHT22;7914;50.842;0.166;2023-12-14T02:16:39;4.00;100.00
15630;DHT22;7914;50.842;0.166;2023-12-14T02:19:05;3.90;100.00
15630;DHT22;7914;50.842;0.166;2023-12-14T02:21:31;3.80;100.00
15630;DHT22;7914;50.842;0.166;2023-12-14T02:23:57;3.90;100.00
15630;DHT22;7914;50.842;0.166;2023-12-14T02:26:23;3.90;100.00
15630;DHT22;7914;50.842;0.166;2023-12-14T02:28:48;4.00;100.00
15630;DHT22;7914;50.842;0.166;2023-12-14T02:31:14;4.00;100.00
15630;DHT22;7914;50.842;0.166;2023-12-14T02:33:40;4.00;100.00
15630;DHT22;7914;50.842;0.166;2023-12-14T02:36:06;4.10;100.00
15630;DHT22;7914;50.842;0.166;2023-12-14T02:38:32;4.10;100.00
15630;DHT22;7914;50.842;0.166;2023-12-14T02:40:57;4.10;100.00
15630;DHT22;7914;50.842;0.166;2023-12-14T02:43:23;4.00;100.00
15630;DHT22;7914;50.842;0.166;2023-12-14T02:45:49;4.00;100.00
15630;DHT22;7914;50.842;0.166;2023-12-14T02:48:15;4.10;100.00
15630;DHT22;7914;50.842;0.166;2023-12-14T02:50:41;4.10;100.00
15630;DHT22;7914;50.842;0.166;2023-12-14T02:53:07;4.10;100.00
15630;DHT22;7914;50.842;0.166;2023-12-14T02:55:32;4.10;100.00
15630;DHT22;7914;50.842;0.166;2023-12-14T02:57:58;4.10;100.00
15630;DHT22;7914;50.842;0.166;2023-12-14T03:00:24;4.00;100.00
15630;DHT22;7914;50.842;0.166;2023-12-14T03:02:50;4.00;100.00
15630;DHT22;7914;50.842;0.166;2023-12-14T03:05:15;4.00;100.00
15630;DHT22;7914;50.842;0.166;2023-12-14T03:07:41;3.90;100.00
15630;DHT22;7914;50.842;0.166;2023-12-14T03:10:07;3.90;100.00
15630;DHT22;7914;50.842;0.166;2023-12-14T03:12:33;3.90;100.00
15630;DHT22;7914;50.842;0.166;2023-12-14T03:14:59;3.90;100.00
15630;DHT22;7914;50.842;0.166;2023-12-14T03:17:24;3.90;100.00
15630;DHT22;7914;50.842;0.166;2023-12-14T03:19:50;3.90;100.00
15630;DHT22;7914;50.842;0.166;2023-12-14T03:22:16;3.80;100.00
15630;DHT22;7914;50.842;0.166;2023-12-14T03:24:42;3.90;100.00
15630;DHT22;7914;50.842;0.166;2023-12-14T03:27:08;3.80;100.00
15630;DHT22;7914;50.842;0.166;2023-12-14T03:29:33;3.80;100.00
15630;DHT22;7914;50.842;0.166;2023-12-14T03:32:00;3.80;100.00
15630;DHT22;7914;50.842;0.166;2023-12-14T03:34:26;3.80;100.00
15630;DHT22;7914;50.842;0.166;2023-12-14T03:36:52;3.80;100.00
15630;DHT22;7914;50.842;0.166;2023-12-14T03:39:17;3.90;100.00
15630;DHT22;7914;50.842;0.166;2023-12-14T03:41:44;3.90;100.00
15630;DHT22;7914;50.842;0.166;2023-12-14T03:44:10;4.00;100.00
15630;DHT22;7914;50.842;0.166;2023-12-14T03:46:35;4.00;100.00
15630;DHT22;7914;50.842;0.166;2023-12-14T03:49:02;4.00;100.00
15630;DHT22;7914;50.842;0.166;2023-12-14T03:51:29;4.00;100.00
15630;DHT22;7914;50.842;0.166;2023-12-14T03:53:54;3.90;100.00
15630;DHT22;7914;50.842;0.166;2023-12-14T03:56:20;4.00;100.00
15630;DHT22;7914;50.842;0.166;2023-12-14T03:58:46;4.00;100.00
15630;DHT22;7914;50.842;0.166;2023-12-14T04:01:18;4.00;100.00
15630;DHT22;7914;50.842;0.166;2023-12-14T04:03:45;4.00;100.00
15630;DHT22;7914;50.842;0.166;2023-12-14T04:06:11;3.90;100.00
15630;DHT22;7914;50.842;0.166;2023-12-14T04:08:37;3.90;100.00
15630;DHT22;7914;50.842;0.166;2023-12-14T04:11:03;3.80;100.00
15630;DHT22;7914;50.842;0.166;2023-12-14T04:13:29;3.80;100.00
15630;DHT22;7914;50.842;0.166;2023-12-14T04:15:54;3.70;100.00
15630;DHT22;7914;50.842;0.166;2023-12-14T04:18:20;3.60;100.00
15630;DHT22;7914;50.842;0.166;2023-12-14T04:20:46;3.60;100.00
15630;DHT22;7914;50.842;0.166;2023-12-14T04:23:11;3.60;100.00
15630;DHT22;7914;50.842;0.166;2023-12-14T04:25:37;3.60;100.00
15630;DHT22;7914;50.842;0.166;2023-12-14T04:28:03;3.50;100.00
15630;DHT22;7914;50.842;0.166;2023-12-14T04:30:29;3.60;100.00
15630;DHT22;7914;50.842;0.166;2023-12-14T04:32:54;3.60;100.00
15630;DHT22;7914;50.842;0.166;2023-12-14T04:35:20;3.60;100.00
15630;DHT22;7914;50.842;0.166;2023-12-14T04:37:48;3.60;100.00
15630;DHT22;7914;50.842;0.166;2023-12-14T04:40:14;3.70;100.00
15630;DHT22;7914;50.842;0.166;2023-12-14T04:42:39;3.60;100.00
15630;DHT22;7914;50.842;0.166;2023-12-14T04:45:06;3.60;100.00
15630;DHT22;7914;50.842;0.166;2023-12-14T04:47:31;3.50;100.00
15630;DHT22;7914;50.842;0.166;2023-12-14T04:49:57;3.40;100.00
15630;DHT22;7914;50.842;0.166;2023-12-14T04:52:23;3.30;100.00
15630;DHT22;7914;50.842;0.166;2023-12-14T04:54:48;3.20;100.00
15630;DHT22;7914;50.842;0.166;2023-12-14T04:57:15;3.20;100.00
15630;DHT22;7914;50.842;0.166;2023-12-14T04:59:43;3.20;100.00
15630;DHT22;7914;50.842;0.166;2023-12-14T05:02:09;3.10;100.00
15630;DHT22;7914;50.842;0.166;2023-12-14T05:04:35;3.10;100.00
15630;DHT22;7914;50.842;0.166;2023-12-14T05:07:01;3.00;100.00
15630;DHT22;7914;50.842;0.166;2023-12-14T05:09:26;3.00;100.00
15630;DHT22;7914;50.842;0.166;2023-12-14T05:11:52;3.00;100.00
15630;DHT22;7914;50.842;0.166;2023-12-14T05:14:18;3.00;100.00
15630;DHT22;7914;50.842;0.166;2023-12-14T05:16:44;3.00;100.00
15630;DHT22;7914;50.842;0.166;2023-12-14T05:19:10;3.00;100.00
15630;DHT22;7914;50.842;0.166;2023-12-14T05:21:35;3.10;100.00
15630;DHT22;7914;50.842;0.166;2023-12-14T05:24:01;3.00;100.00
15630;DHT22;7914;50.842;0.166;2023-12-14T05:26:28;3.00;100.00
15630;DHT22;7914;50.842;0.166;2023-12-14T05:28:54;3.00;100.00
15630;DHT22;7914;50.842;0.166;2023-12-14T05:31:19;3.00;100.00
15630;DHT22;7914;50.842;0.166;2023-12-14T05:33:45;3.10;100.00
15630;DHT22;7914;50.842;0.166;2023-12-14T05:36:11;3.10;100.00
15630;DHT22;7914;50.842;0.166;2023-12-14T05:38:39;3.10;100.00
15630;DHT22;7914;50.842;0.166;2023-12-14T05:41:05;3.10;100.00
15630;DHT22;7914;50.842;0.166;2023-12-14T05:43:31;3.20;100.00
15630;DHT22;7914;50.842;0.166;2023-12-14T05:45:57;3.30;100.00
15630;DHT22;7914;50.842;0.166;2023-12-14T05:48:23;3.30;100.00
15630;DHT22;7914;50.842;0.166;2023-12-14T05:50:49;3.30;100.00
15630;DHT22;7914;50.842;0.166;2023-12-14T05:53:14;3.40;100.00
15630;DHT22;7914;50.842;0.166;2023-12-14T05:55:41;3.40;100.00
15630;DHT22;7914;50.842;0.166;2023-12-14T05:58:07;3.30;100.00
15630;DHT22;7914;50.842;0.166;2023-12-14T06:00:33;3.30;100.00
15630;DHT22;7914;50.842;0.166;2023-12-14T06:03:01;3.30;100.00
15630;DHT22;7914;50.842;0.166;2023-12-14T06:05:27;3.30;100.00
15630;DHT22;7914;50.842;0.166;2023-12-14T06:07:52;3.30;100.00
15630;DHT22;7914;50.842;0.166;2023-12-14T06:10:18;3.30;100.00
15630;DHT22;7914;50.842;0.166;2023-12-14T06:12:44;3.30;100.00
15630;DHT22;7914;50.842;0.166;2023-12-14T06:15:10;3.30;100.00
15630;DHT22;7914;50.842;0.166;2023-12-14T06:17:37;3.30;100.00
15630;DHT22;7914;50.842;0.166;2023-12-14T06:20:05;3.40;100.00
15630;DHT22;7914;50.842;0.166;2023-12-14T06:22:36;3.40;100.00
15630;DHT22;7914;50.842;0.166;2023-12-14T06:25:01;3.40;100.00
15630;DHT22;7914;50.842;0.166;2023-12-14T06:27:29;3.40;100.00
15630;DHT22;7914;50.842;0.166;2023-12-14T06:29:54;3.50;100.00
15630;DHT22;7914;50.842;0.166;2023-12-14T06:32:20;3.40;100.00
15630;DHT22;7914;50.842;0.166;2023-12-14T06:34:46;3.40;100.00
15630;DHT22;7914;50.842;0.166;2023-12-14T06:37:12;3.40;100.00
15630;DHT22;7914;50.842;0.166;2023-12-14T06:39:37;3.40;100.00
15630;DHT22;7914;50.842;0.166;2023-12-14T06:42:03;3.50;100.00
15630;DHT22;7914;50.842;0.166;2023-12-14T06:44:29;3.50;100.00
15630;DHT22;7914;50.842;0.166;2023-12-14T06:46:56;3.60;100.00
15630;DHT22;7914;50.842;0.166;2023-12-14T06:49:23;3.50;100.00
15630;DHT22;7914;50.842;0.166;2023-12-14T06:51:49;3.50;100.00
15630;DHT22;7914;50.842;0.166;2023-12-14T06:54:15;3.60;100.00
15630;DHT22;7914;50.842;0.166;2023-12-14T06:56:40;3.60;100.00
15630;DHT22;7914;50.842;0.166;2023-12-14T06:59:06;3.60;100.00
15630;DHT22;7914;50.842;0.166;2023-12-14T07:01:32;3.60;100.00
15630;DHT22;7914;50.842;0.166;2023-12-14T07:03:57;3.60;100.00
15630;DHT22;7914;50.842;0.166;2023-12-14T07:06:23;3.70;100.00
15630;DHT22;7914;50.842;0.166;2023-12-14T07:08:49;3.70;100.00
15630;DHT22;7914;50.842;0.166;2023-12-14T07:11:15;3.80;100.00
15630;DHT22;7914;50.842;0.166;2023-12-14T07:13:41;3.80;100.00
15630;DHT22;7914;50.842;0.166;2023-12-14T07:16:07;3.70;100.00
15630;DHT22;7914;50.842;0.166;2023-12-14T07:18:42;3.60;100.00
15630;DHT22;7914;50.842;0.166;2023-12-14T07:21:09;3.60;100.00
15630;DHT22;7914;50.842;0.166;2023-12-14T07:23:35;3.60;100.00
15630;DHT22;7914;50.842;0.166;2023-12-14T07:26:01;3.60;100.00
15630;DHT22;7914;50.842;0.166;2023-12-14T07:28:28;3.60;100.00
15630;DHT22;7914;50.842;0.166;2023-12-14T07:30:54;3.70;100.00
15630;DHT22;7914;50.842;0.166;2023-12-14T07:33:20;3.70;100.00
15630;DHT22;7914;50.842;0.166;2023-12-14T07:35:46;3.70;100.00
15630;DHT22;7914;50.842;0.166;2023-12-14T07:38:12;3.70;100.00
15630;DHT22;7914;50.842;0.166;2023-12-14T07:40:38;3.70;100.00
15630;DHT22;7914;50.842;0.166;2023-12-14T07:43:04;3.80;100.00
15630;DHT22;7914;50.842;0.166;2023-12-14T07:45:30;3.70;100.00
15630;DHT22;7914;50.842;0.166;2023-12-14T07:47:56;3.80;100.00
15630;DHT22;7914;50.842;0.166;2023-12-14T07:50:22;3.80;100.00
15630;DHT22;7914;50.842;0.166;2023-12-14T07:52:47;3.80;100.00
15630;DHT22;7914;50.842;0.166;2023-12-14T07:55:13;3.90;100.00
15630;DHT22;7914;50.842;0.166;2023-12-14T07:57:39;3.90;100.00
15630;DHT22;7914;50.842;0.166;2023-12-14T08:00:06;4.00;100.00
15630;DHT22;7914;50.842;0.166;2023-12-14T08:02:34;3.90;100.00
15630;DHT22;7914;50.842;0.166;2023-12-14T08:04:59;3.90;100.00
15630;DHT22;7914;50.842;0.166;2023-12-14T08:07:25;3.90;100.00
15630;DHT22;7914;50.842;0.166;2023-12-14T08:09:55;3.90;100.00
15630;DHT22;7914;50.842;0.166;2023-12-14T08:12:21;3.80;100.00
15630;DHT22;7914;50.842;0.166;2023-12-14T08:14:47;3.80;100.00
15630;DHT22;7914;50.842;0.166;2023-12-14T08:17:13;3.80;100.00
15630;DHT22;7914;50.842;0.166;2023-12-14T08:19:39;3.80;100.00
15630;DHT22;7914;50.842;0.166;2023-12-14T08:22:04;3.80;100.00
15630;DHT22;7914;50.842;0.166;2023-12-14T08:24:30;3.80;100.00
15630;DHT22;7914;50.842;0.166;2023-12-14T08:26:56;3.80;100.00
15630;DHT22;7914;50.842;0.166;2023-12-14T08:29:22;3.80;100.00
15630;DHT22;7914;50.842;0.166;2023-12-14T08:31:48;3.90;100.00
15630;DHT22;7914;50.842;0.166;2023-12-14T08:34:16;3.90;100.00
15630;DHT22;7914;50.842;0.166;2023-12-14T08:36:42;3.90;100.00
15630;DHT22;7914;50.842;0.166;2023-12-14T08:39:08;4.00;100.00
15630;DHT22;7914;50.842;0.166;2023-12-14T08:41:33;4.00;100.00
15630;DHT22;7914;50.842;0.166;2023-12-14T08:43:59;4.00;100.00
15630;DHT22;7914;50.842;0.166;2023-12-14T08:46:25;4.10;100.00
15630;DHT22;7914;50.842;0.166;2023-12-14T08:48:50;4.00;100.00
15630;DHT22;7914;50.842;0.166;2023-12-14T08:51:17;4.00;100.00
15630;DHT22;7914;50.842;0.166;2023-12-14T08:53:44;4.00;100.00
15630;DHT22;7914;50.842;0.166;2023-12-14T08:56:10;4.10;100.00
15630;DHT22;7914;50.842;0.166;2023-12-14T08:58:36;4.10;100.00
15630;DHT22;7914;50.842;0.166;2023-12-14T09:01:01;4.10;100.00
15630;DHT22;7914;50.842;0.166;2023-12-14T09:03:27;4.10;100.00
15630;DHT22;7914;50.842;0.166;2023-12-14T09:05:53;4.30;100.00
15630;DHT22;7914;50.842;0.166;2023-12-14T09:08:18;4.40;100.00
15630;DHT22;7914;50.842;0.166;2023-12-14T09:10:44;4.60;100.00
15630;DHT22;7914;50.842;0.166;2023-12-14T09:13:10;4.70;100.00
15630;DHT22;7914;50.842;0.166;2023-12-14T09:15:36;4.70;100.00
15630;DHT22;7914;50.842;0.166;2023-12-14T09:18:02;4.60;100.00
15630;DHT22;7914;50.842;0.166;2023-12-14T09:20:28;4.60;100.00
15630;DHT22;7914;50.842;0.166;2023-12-14T09:22:54;4.70;100.00
15630;DHT22;7914;50.842;0.166;2023-12-14T09:25:20;4.60;100.00
15630;DHT22;7914;50.842;0.166;2023-12-14T09:27:46;4.50;100.00
15630;DHT22;7914;50.842;0.166;2023-12-14T09:30:12;4.60;100.00
15630;DHT22;7914;50.842;0.166;2023-12-14T09:32:38;4.60;100.00
15630;DHT22;7914;50.842;0.166;2023-12-14T09:35:06;4.50;100.00
15630;DHT22;7914;50.842;0.166;2023-12-14T09:37:32;4.60;100.00
15630;DHT22;7914;50.842;0.166;2023-12-14T09:39:57;4.60;100.00
15630;DHT22;7914;50.842;0.166;2023-12-14T09:42:23;4.70;100.00
15630;DHT22;7914;50.842;0.166;2023-12-14T09:44:50;4.80;100.00
15630;DHT22;7914;50.842;0.166;2023-12-14T09:47:18;4.80;100.00
15630;DHT22;7914;50.842;0.166;2023-12-14T09:49:45;4.90;100.00
15630;DHT22;7914;50.842;0.166;2023-12-14T09:52:11;4.90;100.00
15630;DHT22;7914;50.842;0.166;2023-12-14T09:54:37;4.80;100.00
15630;DHT22;7914;50.842;0.166;2023-12-14T09:57:03;5.00;100.00
15630;DHT22;7914;50.842;0.166;2023-12-14T09:59:29;5.10;100.00
15630;DHT22;7914;50.842;0.166;2023-12-14T10:02:09;5.20;100.00
15630;DHT22;7914;50.842;0.166;2023-12-14T10:04:36;5.20;100.00
15630;DHT22;7914;50.842;0.166;2023-12-14T10:07:02;5.20;100.00
15630;DHT22;7914;50.842;0.166;2023-12-14T10:09:33;5.30;100.00
15630;DHT22;7914;50.842;0.166;2023-12-14T10:12:06;5.30;100.00
15630;DHT22;7914;50.842;0.166;2023-12-14T10:14:33;5.40;100.00
15630;DHT22;7914;50.842;0.166;2023-12-14T10:16:59;5.50;100.00
15630;DHT22;7914;50.842;0.166;2023-12-14T10:19:42;5.60;100.00
15630;DHT22;7914;50.842;0.166;2023-12-14T10:22:09;5.80;100.00
15630;DHT22;7914;50.842;0.166;2023-12-14T10:24:35;5.90;100.00
15630;DHT22;7914;50.842;0.166;2023-12-14T10:27:05;5.90;100.00
15630;DHT22;7914;50.842;0.166;2023-12-14T10:29:33;6.00;100.00
15630;DHT22;7914;50.842;0.166;2023-12-14T10:32:04;6.10;100.00
15630;DHT22;7914;50.842;0.166;2023-12-14T10:34:32;6.20;100.00
15630;DHT22;7914;50.842;0.166;2023-12-14T10:36:59;6.30;100.00
15630;DHT22;7914;50.842;0.166;2023-12-14T10:39:25;6.30;100.00
15630;DHT22;7914;50.842;0.166;2023-12-14T10:41:52;6.40;100.00
15630;DHT22;7914;50.842;0.166;2023-12-14T10:44:25;6.50;100.00
15630;DHT22;7914;50.842;0.166;2023-12-14T10:46:57;6.50;100.00
15630;DHT22;7914;50.842;0.166;2023-12-14T10:49:24;6.50;100.00
15630;DHT22;7914;50.842;0.166;2023-12-14T10:51:52;6.60;100.00
15630;DHT22;7914;50.842;0.166;2023-12-14T10:54:18;6.50;100.00
15630;DHT22;7914;50.842;0.166;2023-12-14T10:56:44;6.50;100.00
15630;DHT22;7914;50.842;0.166;2023-12-14T10:59:15;6.50;100.00
15630;DHT22;7914;50.842;0.166;2023-12-14T11:01:42;6.60;100.00
15630;DHT22;7914;50.842;0.166;2023-12-14T11:04:08;6.70;100.00
15630;DHT22;7914;50.842;0.166;2023-12-14T11:06:39;6.80;100.00
15630;DHT22;7914;50.842;0.166;2023-12-14T11:09:07;6.80;100.00
15630;DHT22;7914;50.842;0.166;2023-12-14T11:14:26;6.80;100.00
15630;DHT22;7914;50.842;0.166;2023-12-14T11:16:57;6.90;100.00
15630;DHT22;7914;50.842;0.166;2023-12-14T11:19:28;7.00;100.00
15630;DHT22;7914;50.842;0.166;2023-12-14T11:24:25;7.00;100.00
15630;DHT22;7914;50.842;0.166;2023-12-14T11:26:53;7.10;100.00
15630;DHT22;7914;50.842;0.166;2023-12-14T11:29:19;7.10;100.00
15630;DHT22;7914;50.842;0.166;2023-12-14T11:31:47;7.20;100.00
15630;DHT22;7914;50.842;0.166;2023-12-14T11:34:15;7.20;100.00
15630;DHT22;7914;50.842;0.166;2023-12-14T11:36:42;7.20;100.00
15630;DHT22;7914;50.842;0.166;2023-12-14T11:39:09;7.40;100.00
15630;DHT22;7914;50.842;0.166;2023-12-14T11:41:36;7.50;100.00
15630;DHT22;7914;50.842;0.166;2023-12-14T11:44:04;7.60;100.00
15630;DHT22;7914;50.842;0.166;2023-12-14T11:46:30;7.70;100.00
15630;DHT22;7914;50.842;0.166;2023-12-14T11:48:57;7.70;100.00
15630;DHT22;7914;50.842;0.166;2023-12-14T11:51:23;7.60;100.00
15630;DHT22;7914;50.842;0.166;2023-12-14T11:53:51;7.60;100.00
15630;DHT22;7914;50.842;0.166;2023-12-14T11:56:18;7.50;100.00
15630;DHT22;7914;50.842;0.166;2023-12-14T11:58:44;7.60;100.00
15630;DHT22;7914;50.842;0.166;2023-12-14T12:01:20;7.50;100.00
15630;DHT22;7914;50.842;0.166;2023-12-14T12:03:51;7.50;100.00
15630;DHT22;7914;50.842;0.166;2023-12-14T12:06:24;7.60;100.00
15630;DHT22;7914;50.842;0.166;2023-12-14T12:08:51;7.50;100.00
15630;DHT22;7914;50.842;0.166;2023-12-14T12:11:22;7.40;100.00
15630;DHT22;7914;50.842;0.166;2023-12-14T12:13:55;7.40;100.00
15630;DHT22;7914;50.842;0.166;2023-12-14T12:16:21;7.40;100.00
15630;DHT22;7914;50.842;0.166;2023-12-14T12:18:47;7.40;100.00
15630;DHT22;7914;50.842;0.166;2023-12-14T12:21:13;7.50;100.00
15630;DHT22;7914;50.842;0.166;2023-12-14T12:23:39;7.50;100.00
15630;DHT22;7914;50.842;0.166;2023-12-14T12:26:07;7.60;100.00
15630;DHT22;7914;50.842;0.166;2023-12-14T12:28:33;7.60;100.00
15630;DHT22;7914;50.842;0.166;2023-12-14T12:30:58;7.70;100.00
15630;DHT22;7914;50.842;0.166;2023-12-14T12:33:25;7.80;100.00
15630;DHT22;7914;50.842;0.166;2023-12-14T12:35:52;7.80;100.00
15630;DHT22;7914;50.842;0.166;2023-12-14T12:38:17;7.90;100.00
15630;DHT22;7914;50.842;0.166;2023-12-14T12:40:44;8.00;100.00
15630;DHT22;7914;50.842;0.166;2023-12-14T12:43:10;8.00;100.00
15630;DHT22;7914;50.842;0.166;2023-12-14T12:45:37;8.00;100.00
15630;DHT22;7914;50.842;0.166;2023-12-14T12:48:03;8.00;100.00
15630;DHT22;7914;50.842;0.166;2023-12-14T12:50:30;8.00;100.00
15630;DHT22;7914;50.842;0.166;2023-12-14T12:52:56;8.00;100.00
15630;DHT22;7914;50.842;0.166;2023-12-14T12:55:21;8.00;100.00
15630;DHT22;7914;50.842;0.166;2023-12-14T12:57:48;8.10;100.00
15630;DHT22;7914;50.842;0.166;2023-12-14T13:00:14;8.10;100.00
15630;DHT22;7914;50.842;0.166;2023-12-14T13:02:41;8.10;100.00
15630;DHT22;7914;50.842;0.166;2023-12-14T13:05:08;8.20;100.00
15630;DHT22;7914;50.842;0.166;2023-12-14T13:07:35;8.20;100.00
15630;DHT22;7914;50.842;0.166;2023-12-14T13:10:02;8.20;100.00
15630;DHT22;7914;50.842;0.166;2023-12-14T13:12:29;8.20;100.00
15630;DHT22;7914;50.842;0.166;2023-12-14T13:14:55;8.20;100.00
15630;DHT22;7914;50.842;0.166;2023-12-14T13:17:20;8.30;100.00
15630;DHT22;7914;50.842;0.166;2023-12-14T13:19:46;8.20;100.00
15630;DHT22;7914;50.842;0.166;2023-12-14T13:22:12;8.20;100.00
15630;DHT22;7914;50.842;0.166;2023-12-14T13:24:38;8.20;100.00
15630;DHT22;7914;50.842;0.166;2023-12-14T13:27:04;8.30;100.00
15630;DHT22;7914;50.842;0.166;2023-12-14T13:29:30;8.30;100.00
15630;DHT22;7914;50.842;0.166;2023-12-14T13:32:00;8.30;100.00
15630;DHT22;7914;50.842;0.166;2023-12-14T13:34:26;8.30;100.00
15630;DHT22;7914;50.842;0.166;2023-12-14T13:36:56;8.30;100.00
15630;DHT22;7914;50.842;0.166;2023-12-14T13:39:22;8.30;100.00
15630;DHT22;7914;50.842;0.166;2023-12-14T13:41:48;8.30;100.00
15630;DHT22;7914;50.842;0.166;2023-12-14T13:44:14;8.30;100.00
15630;DHT22;7914;50.842;0.166;2023-12-14T13:46:40;8.30;100.00
15630;DHT22;7914;50.842;0.166;2023-12-14T13:49:06;8.40;100.00
15630;DHT22;7914;50.842;0.166;2023-12-14T13:51:32;8.40;100.00
15630;DHT22;7914;50.842;0.166;2023-12-14T13:54:00;8.30;100.00
15630;DHT22;7914;50.842;0.166;2023-12-14T13:56:25;8.30;100.00
15630;DHT22;7914;50.842;0.166;2023-12-14T13:58:51;8.40;100.00
15630;DHT22;7914;50.842;0.166;2023-12-14T14:01:17;8.40;100.00
15630;DHT22;7914;50.842;0.166;2023-12-14T14:03:43;8.40;100.00
15630;DHT22;7914;50.842;0.166;2023-12-14T14:06:09;8.40;100.00
15630;DHT22;7914;50.842;0.166;2023-12-14T14:08:35;8.40;100.00
15630;DHT22;7914;50.842;0.166;2023-12-14T14:11:01;8.40;100.00
15630;DHT22;7914;50.842;0.166;2023-12-14T14:13:28;8.40;100.00
15630;DHT22;7914;50.842;0.166;2023-12-14T14:15:54;8.40;100.00
15630;DHT22;7914;50.842;0.166;2023-12-14T14:18:20;8.40;100.00
15630;DHT22;7914;50.842;0.166;2023-12-14T14:20:45;8.50;100.00
15630;DHT22;7914;50.842;0.166;2023-12-14T14:23:11;8.40;100.00
15630;DHT22;7914;50.842;0.166;2023-12-14T14:25:37;8.40;100.00
15630;DHT22;7914;50.842;0.166;2023-12-14T14:28:02;8.40;100.00
15630;DHT22;7914;50.842;0.166;2023-12-14T14:30:29;8.40;100.00
15630;DHT22;7914;50.842;0.166;2023-12-14T14:32:55;8.50;100.00
15630;DHT22;7914;50.842;0.166;2023-12-14T14:35:21;8.50;100.00
15630;DHT22;7914;50.842;0.166;2023-12-14T14:37:47;8.40;100.00
15630;DHT22;7914;50.842;0.166;2023-12-14T14:40:13;8.50;100.00
15630;DHT22;7914;50.842;0.166;2023-12-14T14:42:40;8.50;100.00
15630;DHT22;7914;50.842;0.166;2023-12-14T14:45:10;8.50;100.00
15630;DHT22;7914;50.842;0.166;2023-12-14T14:47:36;8.50;100.00
15630;DHT22;7914;50.842;0.166;2023-12-14T14:50:02;8.50;100.00
15630;DHT22;7914;50.842;0.166;2023-12-14T14:52:33;8.50;100.00
15630;DHT22;7914;50.842;0.166;2023-12-14T14:54:59;8.50;100.00
15630;DHT22;7914;50.842;0.166;2023-12-14T14:57:25;8.50;100.00
15630;DHT22;7914;50.842;0.166;2023-12-14T14:59:51;8.50;100.00
15630;DHT22;7914;50.842;0.166;2023-12-14T15:02:17;8.50;100.00
15630;DHT22;7914;50.842;0.166;2023-12-14T15:04:43;8.50;100.00
15630;DHT22;7914;50.842;0.166;2023-12-14T15:07:09;8.40;100.00
15630;DHT22;7914;50.842;0.166;2023-12-14T15:09:35;8.50;100.00
15630;DHT22;7914;50.842;0.166;2023-12-14T15:12:00;8.50;100.00
15630;DHT22;7914;50.842;0.166;2023-12-14T15:14:26;8.50;100.00
15630;DHT22;7914;50.842;0.166;2023-12-14T15:16:55;8.50;100.00
15630;DHT22;7914;50.842;0.166;2023-12-14T15:19:20;8.50;100.00
15630;DHT22;7914;50.842;0.166;2023-12-14T15:21:46;8.60;100.00
15630;DHT22;7914;50.842;0.166;2023-12-14T15:24:12;8.60;100.00
15630;DHT22;7914;50.842;0.166;2023-12-14T15:26:38;8.60;100.00
15630;DHT22;7914;50.842;0.166;2023-12-14T15:29:04;8.60;100.00
15630;DHT22;7914;50.842;0.166;2023-12-14T15:31:30;8.60;100.00
15630;DHT22;7914;50.842;0.166;2023-12-14T15:33:56;8.70;100.00
15630;DHT22;7914;50.842;0.166;2023-12-14T15:36:22;8.70;100.00
15630;DHT22;7914;50.842;0.166;2023-12-14T15:38:48;8.70;100.00
15630;DHT22;7914;50.842;0.166;2023-12-14T15:41:14;8.70;100.00
15630;DHT22;7914;50.842;0.166;2023-12-14T15:43:43;8.70;100.00